createdAt,value
2022-08-21T00:02:24.623Z,74.07
2022-08-21T00:04:57.110Z,73.42
2022-08-21T00:07:26.032Z,73.64
2022-08-21T00:09:54.321Z,73.91
2022-08-21T00:12:21.448Z,73.88
2022-08-21T00:14:48.469Z,73.77
2022-08-21T00:17:15.360Z,74.22
2022-08-21T00:19:42.178Z,73.56
2022-08-21T00:22:11.653Z,74.01
2022-08-21T00:24:38.572Z,74.52
2022-08-21T00:27:05.558Z,74.11
2022-08-21T00:29:32.429Z,74.38
2022-08-21T00:32:10.407Z,74.75
2022-08-21T00:34:37.297Z,74.16
2022-08-21T00:37:04.183Z,74.39
2022-08-21T00:39:30.994Z,74.35
2022-08-21T00:41:57.820Z,74.67
2022-08-21T00:44:24.684Z,74.94
2022-08-21T00:46:51.582Z,75.28
2022-08-21T00:49:18.706Z,74.92
2022-08-21T00:52:10.534Z,74.76
2022-08-21T00:54:38.146Z,74.77
2022-08-21T00:57:13.565Z,74.70
2022-08-21T00:59:45.755Z,74.85
2022-08-21T01:02:12.900Z,74.42
2022-08-21T01:04:40.132Z,75.25
2022-08-21T01:07:07.070Z,75.55
2022-08-21T01:09:33.969Z,75.09
2022-08-21T01:12:11.590Z,75.76
2022-08-21T01:14:39.003Z,75.51
2022-08-21T01:17:06.270Z,75.43
2022-08-21T01:19:33.291Z,75.83
2022-08-21T01:22:10.664Z,75.47
2022-08-21T01:24:37.991Z,75.60
2022-08-21T01:27:05.218Z,76.37
2022-08-21T01:29:49.865Z,76.04
2022-08-21T01:32:20.258Z,75.90
2022-08-21T01:34:49.836Z,76.41
2022-08-21T01:37:17.973Z,76.29
2022-08-21T01:39:45.906Z,76.14
2022-08-21T01:42:19.304Z,76.13
2022-08-21T01:44:46.504Z,76.10
2022-08-21T01:47:15.452Z,76.74
2022-08-21T01:49:46.087Z,77.91
2022-08-21T01:52:17.140Z,76.91
2022-08-21T01:54:44.276Z,76.58
2022-08-21T01:57:15.292Z,76.71
2022-08-21T01:59:42.801Z,76.75
2022-08-21T02:02:15.393Z,76.69
2022-08-21T02:04:42.591Z,77.04
2022-08-21T02:07:15.628Z,78.01
2022-08-21T02:09:45.758Z,77.49
2022-08-21T02:12:12.943Z,77.24
2022-08-21T02:14:40.115Z,77.28
2022-08-21T02:17:09.368Z,77.66
2022-08-21T02:19:40.147Z,78.03
2022-08-21T02:22:10.011Z,77.71
2022-08-21T02:24:54.731Z,78.57
2022-08-21T02:27:27.500Z,77.98
2022-08-21T02:29:57.475Z,77.59
2022-08-21T02:32:24.507Z,77.73
2022-08-21T02:34:51.745Z,78.09
2022-08-21T02:37:18.918Z,78.07
2022-08-21T02:39:45.986Z,78.06
2022-08-21T02:42:12.950Z,78.89
2022-08-21T02:44:39.864Z,78.17
2022-08-21T02:47:07.033Z,78.66
2022-08-21T02:49:35.699Z,78.30
2022-08-21T02:52:02.619Z,78.70
2022-08-21T02:54:29.739Z,78.54
2022-08-21T02:56:56.719Z,79.28
2022-08-21T02:59:23.833Z,79.74
2022-08-21T03:01:50.775Z,79.44
2022-08-21T03:04:17.830Z,79.23
2022-08-21T03:06:44.726Z,79.74
2022-08-21T03:09:12.869Z,79.78
2022-08-21T03:11:40.036Z,79.40
2022-08-21T03:14:06.986Z,80.03
2022-08-21T03:16:35.214Z,79.88
2022-08-21T03:19:03.608Z,79.54
2022-08-21T03:21:30.616Z,79.30
2022-08-21T03:23:57.641Z,79.37
2022-08-21T03:26:27.838Z,79.72
2022-08-21T03:28:55.350Z,79.75
2022-08-21T03:31:22.954Z,80.05
2022-08-21T03:33:50.033Z,79.87
2022-08-21T03:36:17.141Z,80.45
2022-08-21T03:38:44.161Z,79.87
2022-08-21T03:41:11.340Z,79.61
2022-08-21T03:43:39.687Z,79.89
2022-08-21T03:46:07.693Z,80.56
2022-08-21T03:48:36.971Z,80.13
2022-08-21T03:51:04.653Z,79.89
2022-08-21T03:53:34.133Z,80.07
2022-08-21T03:56:01.178Z,80.33
2022-08-21T03:58:31.463Z,80.39
2022-08-21T04:01:01.503Z,80.52
2022-08-21T04:03:29.292Z,80.06
2022-08-21T04:05:56.552Z,80.57
2022-08-21T04:08:31.074Z,80.98
2022-08-21T04:10:59.991Z,80.56
2022-08-21T04:13:29.425Z,80.29
2022-08-21T04:15:59.775Z,80.52
2022-08-21T04:18:32.079Z,81.10
2022-08-21T04:21:01.123Z,80.74
2022-08-21T04:23:29.105Z,80.81
2022-08-21T04:25:57.834Z,80.55
2022-08-21T04:28:31.185Z,80.62
2022-08-21T04:30:58.992Z,80.30
2022-08-21T04:33:26.160Z,80.84
2022-08-21T04:35:53.571Z,80.85
2022-08-21T04:38:27.486Z,80.91
2022-08-21T04:41:03.847Z,81.16
2022-08-21T04:43:31.540Z,81.47
2022-08-21T04:45:58.472Z,81.14
2022-08-21T04:48:31.434Z,81.13
2022-08-21T04:51:04.310Z,81.07
2022-08-21T04:53:45.184Z,81.40
2022-08-21T04:56:22.160Z,81.41
2022-08-21T04:58:51.266Z,81.07
2022-08-21T05:01:22.611Z,81.46
2022-08-21T05:03:53.727Z,81.21
2022-08-21T05:06:21.324Z,81.29
2022-08-21T05:08:51.533Z,80.91
2022-08-21T05:11:29.823Z,81.61
2022-08-21T05:13:57.392Z,81.46
2022-08-21T05:16:36.417Z,81.38
2022-08-21T05:19:06.617Z,82.02
2022-08-21T05:21:34.967Z,82.24
2022-08-21T05:24:01.863Z,82.34
2022-08-21T05:26:28.723Z,82.19
2022-08-21T05:28:55.518Z,82.17
2022-08-21T05:31:24.350Z,82.10
2022-08-21T05:33:51.953Z,81.68
2022-08-21T05:36:20.142Z,82.74
2022-08-21T05:38:47.078Z,82.30
2022-08-21T05:41:14.052Z,82.81
2022-08-21T05:43:41.035Z,82.23
2022-08-21T05:46:08.862Z,82.10
2022-08-21T05:48:37.490Z,81.97
2022-08-21T05:51:15.060Z,81.43
2022-08-21T05:53:43.387Z,82.92
2022-08-21T05:56:11.587Z,82.68
2022-08-21T05:58:38.530Z,81.60
2022-08-21T06:01:06.132Z,81.55
2022-08-21T06:03:36.009Z,81.77
2022-08-21T06:06:03.572Z,81.77
2022-08-21T06:08:30.777Z,81.86
2022-08-21T06:11:00.221Z,82.09
2022-08-21T06:13:28.020Z,81.66
2022-08-21T06:16:15.628Z,81.05
2022-08-21T06:18:44.736Z,80.52
2022-08-21T06:21:12.977Z,80.16
2022-08-21T06:23:40.271Z,80.29
2022-08-21T06:26:08.919Z,80.71
2022-08-21T06:28:36.951Z,80.72
2022-08-21T06:31:15.363Z,81.43
2022-08-21T06:33:42.537Z,80.79
2022-08-21T06:36:10.354Z,80.59
2022-08-21T06:38:37.887Z,79.93
2022-08-21T06:41:06.678Z,80.05
2022-08-21T06:43:39.831Z,80.16
2022-08-21T06:46:07.190Z,79.66
2022-08-21T06:48:35.233Z,79.42
2022-08-21T06:51:02.330Z,79.22
2022-08-21T06:53:29.153Z,79.33
2022-08-21T06:55:56.198Z,79.48
2022-08-21T06:58:26.862Z,79.13
2022-08-21T07:00:57.534Z,79.09
2022-08-21T07:03:32.677Z,78.67
2022-08-21T07:06:00.170Z,79.43
2022-08-21T07:08:28.933Z,78.79
2022-08-21T07:10:58.710Z,78.60
2022-08-21T07:13:26.041Z,78.37
2022-08-21T07:15:52.971Z,77.73
2022-08-21T07:18:26.573Z,78.28
2022-08-21T07:20:53.419Z,77.89
2022-08-21T07:23:33.119Z,78.32
2022-08-21T07:26:02.893Z,78.06
2022-08-21T07:28:31.675Z,77.78
2022-08-21T07:31:00.624Z,77.25
2022-08-21T07:33:30.543Z,76.59
2022-08-21T07:35:57.848Z,76.33
2022-08-21T07:38:27.203Z,76.48
2022-08-21T07:40:57.111Z,76.93
2022-08-21T07:43:23.986Z,76.87
2022-08-21T07:45:50.843Z,76.41
2022-08-21T07:48:26.605Z,75.59
2022-08-21T07:50:53.482Z,75.88
2022-08-21T07:53:20.274Z,75.80
2022-08-21T07:55:47.159Z,75.54
2022-08-21T07:58:14.068Z,75.77
2022-08-21T08:00:41.944Z,76.64
2022-08-21T08:03:09.583Z,76.23
2022-08-21T08:05:38.585Z,76.23
2022-08-21T08:08:05.515Z,75.86
2022-08-21T08:10:32.673Z,75.83
2022-08-21T08:12:59.782Z,76.02
2022-08-21T08:15:29.315Z,76.06
2022-08-21T08:17:58.229Z,76.39
2022-08-21T08:20:27.648Z,76.29
2022-08-21T08:22:55.529Z,75.73
2022-08-21T08:25:24.090Z,75.13
2022-08-21T08:27:51.099Z,74.80
2022-08-21T08:30:20.716Z,74.84
2022-08-21T08:32:48.887Z,74.97
2022-08-21T08:35:15.701Z,75.17
2022-08-21T08:37:43.981Z,74.15
2022-08-21T08:40:32.101Z,74.20
2022-08-21T08:42:59.206Z,74.03
2022-08-21T08:45:27.539Z,73.45
2022-08-21T08:48:00.254Z,73.83
2022-08-21T08:50:30.817Z,73.54
2022-08-21T08:53:09.880Z,73.99
2022-08-21T08:55:41.767Z,74.25
2022-08-21T08:58:26.786Z,73.83
2022-08-21T09:00:56.207Z,74.10
2022-08-21T09:03:27.289Z,73.31
2022-08-21T09:06:08.345Z,72.44
2022-08-21T09:08:43.940Z,72.04
2022-08-21T09:11:38.361Z,72.28
2022-08-21T09:14:11.306Z,72.07
2022-08-21T09:16:56.379Z,71.58
2022-08-21T09:19:56.845Z,71.64
2022-08-21T09:23:06.048Z,71.50
2022-08-21T09:25:41.692Z,71.10
2022-08-21T09:28:14.009Z,70.31
2022-08-21T09:30:42.425Z,71.36
2022-08-21T09:33:13.916Z,70.74
2022-08-21T09:35:54.232Z,70.32
2022-08-21T09:38:33.947Z,69.95
2022-08-21T09:41:04.989Z,69.50
2022-08-21T09:43:32.820Z,70.28
2022-08-21T09:46:23.372Z,68.86
2022-08-21T09:48:53.573Z,68.73
2022-08-21T09:51:24.224Z,69.96
2022-08-21T09:54:18.948Z,68.61
2022-08-21T09:57:32.213Z,70.37
2022-08-21T10:00:25.880Z,69.75
2022-08-21T10:02:52.816Z,67.48
2022-08-21T10:05:21.639Z,67.45
2022-08-21T10:07:48.578Z,67.01
2022-08-21T10:10:22.873Z,67.57
2022-08-21T10:13:10.446Z,67.26
2022-08-21T10:16:06.121Z,66.68
2022-08-21T10:19:08.690Z,67.42
2022-08-21T10:21:53.850Z,66.66
2022-08-21T10:24:51.532Z,67.65
2022-08-21T10:27:46.819Z,67.06
2022-08-21T10:30:29.454Z,65.08
2022-08-21T10:33:19.573Z,64.61
2022-08-21T10:36:10.954Z,63.96
2022-08-21T10:39:17.718Z,63.65
2022-08-21T10:42:22.698Z,64.02
2022-08-21T10:45:26.166Z,64.54
2022-08-21T10:48:01.935Z,63.57
2022-08-21T10:50:34.735Z,63.91
2022-08-21T10:53:33.947Z,63.99
2022-08-21T10:56:13.543Z,64.24
2022-08-21T10:59:12.409Z,63.25
2022-08-21T11:01:51.281Z,63.28
2022-08-21T11:04:48.902Z,64.15
2022-08-21T11:07:43.009Z,63.74
2022-08-21T11:10:17.820Z,63.60
2022-08-21T11:12:54.430Z,64.32
2022-08-21T11:15:32.390Z,64.47
2022-08-21T11:18:32.817Z,63.88
2022-08-21T11:21:31.295Z,64.87
2022-08-21T11:24:04.762Z,64.98
2022-08-21T11:26:45.923Z,64.19
2022-08-21T11:29:34.556Z,63.66
2022-08-21T11:32:42.738Z,63.83
2022-08-21T11:35:57.242Z,63.61
2022-08-21T11:38:56.083Z,64.01
2022-08-21T11:42:09.019Z,62.57
2022-08-21T11:44:52.181Z,61.79
2022-08-21T11:47:53.304Z,62.74
2022-08-21T11:50:34.442Z,61.19
2022-08-21T11:53:19.235Z,63.64
2022-08-21T11:55:58.241Z,61.32
2022-08-21T11:58:34.990Z,63.38
2022-08-21T12:01:17.281Z,62.58
2022-08-21T12:04:01.283Z,62.72
2022-08-21T12:06:36.909Z,59.14
2022-08-21T12:09:12.056Z,59.94
2022-08-21T12:11:50.751Z,59.78
2022-08-21T12:14:20.007Z,60.64
2022-08-21T12:16:50.142Z,61.05
2022-08-21T12:19:26.121Z,60.38
2022-08-21T12:22:01.062Z,59.24
2022-08-21T12:24:28.024Z,57.66
2022-08-21T12:26:58.910Z,57.19
2022-08-21T12:29:38.456Z,58.55
2022-08-21T12:32:24.309Z,58.66
2022-08-21T12:35:04.098Z,57.78
2022-08-21T12:37:44.565Z,58.26
2022-08-21T12:40:27.339Z,56.92
2022-08-21T12:42:58.979Z,57.04
2022-08-21T12:45:37.381Z,56.19
2022-08-21T12:48:13.211Z,57.34
2022-08-21T12:50:48.741Z,56.57
2022-08-21T12:53:40.195Z,55.78
2022-08-21T12:56:11.721Z,54.97
2022-08-21T12:58:42.315Z,56.77
2022-08-21T13:01:41.266Z,57.44
2022-08-21T13:04:14.474Z,54.62
2022-08-21T13:06:45.945Z,52.68
2022-08-21T13:09:18.079Z,52.67
2022-08-21T13:11:48.250Z,52.77
2022-08-21T13:14:34.806Z,53.98
2022-08-21T13:17:08.056Z,53.09
2022-08-21T13:19:35.714Z,56.03
2022-08-21T13:22:14.939Z,52.67
2022-08-21T13:24:52.349Z,52.89
2022-08-21T13:27:38.492Z,52.80
2022-08-21T13:30:21.531Z,53.02
2022-08-21T13:32:56.831Z,52.54
2022-08-21T13:35:37.305Z,51.27
2022-08-21T13:38:06.572Z,50.88
2022-08-21T13:40:43.965Z,50.49
2022-08-21T13:43:19.941Z,49.54
2022-08-21T13:45:56.019Z,49.91
2022-08-21T13:48:35.800Z,50.44
2022-08-21T13:51:03.794Z,50.12
2022-08-21T13:53:37.133Z,49.16
2022-08-21T13:56:05.825Z,48.99
2022-08-21T13:58:45.711Z,47.25
2022-08-21T14:01:54.458Z,47.26
2022-08-21T14:04:28.361Z,47.90
2022-08-21T14:06:55.501Z,49.06
2022-08-21T14:09:43.089Z,49.01
2022-08-21T14:12:23.673Z,49.51
2022-08-21T14:14:52.591Z,49.66
2022-08-21T14:17:34.439Z,48.60
2022-08-21T14:20:02.041Z,48.28
2022-08-21T14:22:48.599Z,48.63
2022-08-21T14:25:27.689Z,47.86
2022-08-21T14:28:34.525Z,49.02
2022-08-21T14:31:19.542Z,49.23
2022-08-21T14:33:46.433Z,49.64
2022-08-21T14:36:13.339Z,49.00
2022-08-21T14:38:41.626Z,50.10
2022-08-21T14:41:27.305Z,49.87
2022-08-21T14:44:05.960Z,49.42
2022-08-21T14:46:51.175Z,49.16
2022-08-21T14:49:27.772Z,48.09
2022-08-21T14:51:59.535Z,48.25
2022-08-21T14:54:32.252Z,48.82
2022-08-21T14:57:12.009Z,48.52
2022-08-21T14:59:40.123Z,48.31
2022-08-21T15:02:08.720Z,47.50
2022-08-21T15:04:36.470Z,48.52
2022-08-21T15:07:03.672Z,47.79
2022-08-21T15:09:41.624Z,48.21
2022-08-21T15:12:11.224Z,47.91
2022-08-21T15:14:41.438Z,47.67
2022-08-21T15:17:11.045Z,46.94
2022-08-21T15:19:38.294Z,46.34
2022-08-21T15:22:05.583Z,47.16
2022-08-21T15:24:33.183Z,47.14
2022-08-21T15:27:02.739Z,47.12
2022-08-21T15:29:33.339Z,47.32
2022-08-21T15:32:18.946Z,47.11
2022-08-21T15:34:46.041Z,46.99
2022-08-21T15:37:12.997Z,47.96
2022-08-21T15:39:41.531Z,47.32
2022-08-21T15:42:11.085Z,46.49
2022-08-21T15:44:42.261Z,47.41
2022-08-21T15:47:36.941Z,47.29
2022-08-21T15:50:08.328Z,46.69
2022-08-21T15:52:35.402Z,46.50
2022-08-21T15:55:02.487Z,47.24
2022-08-21T15:57:29.390Z,46.87
2022-08-21T16:00:07.532Z,46.49
2022-08-21T16:02:34.432Z,47.26
2022-08-21T16:05:01.383Z,48.39
2022-08-21T16:07:28.169Z,47.54
2022-08-21T16:09:55.267Z,47.68
2022-08-21T16:12:32.003Z,46.74
2022-08-21T16:15:00.641Z,47.42
2022-08-21T16:17:31.724Z,47.45
2022-08-21T16:19:59.357Z,47.55
2022-08-21T16:22:26.400Z,47.75
2022-08-21T16:25:07.906Z,47.13
2022-08-21T16:27:36.626Z,47.84
2022-08-21T16:30:08.019Z,48.54
2022-08-21T16:32:35.622Z,48.34
2022-08-21T16:35:04.715Z,47.82
2022-08-21T16:37:32.815Z,48.03
2022-08-21T16:39:59.807Z,48.59
2022-08-21T16:42:27.213Z,47.75
2022-08-21T16:44:55.661Z,47.08
2022-08-21T16:47:26.329Z,47.26
2022-08-21T16:49:54.608Z,47.00
2022-08-21T16:52:21.505Z,49.52
2022-08-21T16:54:48.479Z,46.85
2022-08-21T16:57:15.795Z,47.49
2022-08-21T16:59:43.011Z,46.25
2022-08-21T17:02:30.122Z,45.88
2022-08-21T17:04:57.163Z,46.97
2022-08-21T17:07:25.812Z,46.40
2022-08-21T17:09:52.774Z,46.43
2022-08-21T17:12:19.862Z,46.92
2022-08-21T17:14:48.350Z,46.16
2022-08-21T17:17:15.896Z,46.47
2022-08-21T17:19:43.352Z,46.90
2022-08-21T17:22:10.632Z,47.09
2022-08-21T17:24:38.020Z,47.80
2022-08-21T17:27:07.027Z,50.19
2022-08-21T17:29:40.241Z,48.26
2022-08-21T17:32:11.049Z,48.00
2022-08-21T17:34:39.625Z,48.29
2022-08-21T17:37:07.742Z,48.01
2022-08-21T17:39:34.925Z,47.55
2022-08-21T17:42:06.794Z,47.80
2022-08-21T17:44:34.719Z,50.45
2022-08-21T17:47:01.637Z,47.45
2022-08-21T17:49:28.541Z,46.94
2022-08-21T17:51:55.416Z,47.19
2022-08-21T17:54:22.357Z,46.37
2022-08-21T17:56:49.219Z,46.58
2022-08-21T17:59:16.464Z,46.06
2022-08-21T18:01:46.984Z,47.21
2022-08-21T18:04:14.387Z,46.55
2022-08-21T18:06:42.090Z,46.37
2022-08-21T18:09:10.036Z,45.69
2022-08-21T18:11:37.928Z,45.86
2022-08-21T18:14:07.776Z,46.83
2022-08-21T18:16:37.747Z,49.36
2022-08-21T18:19:09.768Z,50.44
2022-08-21T18:21:36.637Z,51.76
2022-08-21T18:24:03.994Z,52.61
2022-08-21T18:26:35.030Z,53.35
2022-08-21T18:29:05.691Z,54.14
2022-08-21T18:31:34.169Z,54.34
2022-08-21T18:34:06.257Z,55.36
2022-08-21T18:36:33.169Z,56.02
2022-08-21T18:39:19.325Z,55.23
2022-08-21T18:41:49.264Z,55.68
2022-08-21T18:44:19.195Z,55.79
2022-08-21T18:46:51.563Z,55.96
2022-08-21T18:49:18.773Z,56.47
2022-08-21T18:51:46.296Z,57.73
2022-08-21T18:54:14.614Z,56.86
2022-08-21T18:56:42.458Z,56.67
2022-08-21T18:59:10.890Z,56.97
2022-08-21T19:01:39.006Z,57.65
2022-08-21T19:04:08.939Z,58.78
2022-08-21T19:06:37.955Z,58.46
2022-08-21T19:09:07.301Z,58.32
2022-08-21T19:11:35.579Z,58.70
2022-08-21T19:14:08.267Z,58.85
2022-08-21T19:16:47.483Z,58.71
2022-08-21T19:19:17.524Z,59.36
2022-08-21T19:21:45.001Z,59.76
2022-08-21T19:24:17.746Z,59.30
2022-08-21T19:26:45.708Z,59.36
2022-08-21T19:29:17.037Z,59.41
2022-08-21T19:31:45.802Z,59.79
2022-08-21T19:34:20.230Z,61.25
2022-08-21T19:36:48.148Z,60.73
2022-08-21T19:39:19.065Z,61.09
2022-08-21T19:41:51.892Z,60.94
2022-08-21T19:44:23.145Z,60.58
2022-08-21T19:46:52.981Z,61.47
2022-08-21T19:49:23.456Z,61.66
2022-08-21T19:51:50.783Z,62.41
2022-08-21T19:54:30.563Z,62.19
2022-08-21T19:57:03.760Z,62.20
2022-08-21T19:59:33.024Z,63.10
2022-08-21T20:02:01.014Z,63.84
2022-08-21T20:04:28.877Z,63.42
2022-08-21T20:06:56.813Z,63.20
2022-08-21T20:09:24.383Z,63.02
2022-08-21T20:11:58.066Z,62.80
2022-08-21T20:14:30.762Z,63.36
2022-08-21T20:17:05.745Z,63.67
2022-08-21T20:19:34.319Z,64.22
2022-08-21T20:22:01.542Z,63.77
2022-08-21T20:24:29.080Z,63.33
2022-08-21T20:26:57.501Z,63.68
2022-08-21T20:29:31.445Z,62.99
2022-08-21T20:32:05.166Z,63.69
2022-08-21T20:34:34.006Z,64.51
2022-08-21T20:37:01.982Z,64.06
2022-08-21T20:39:32.659Z,64.17
2022-08-21T20:41:59.989Z,64.25
2022-08-21T20:44:31.826Z,64.00
2022-08-21T20:47:00.467Z,63.68
2022-08-21T20:49:46.874Z,64.93
2022-08-21T20:52:16.385Z,64.63
2022-08-21T20:54:50.517Z,64.10
2022-08-21T20:57:29.242Z,64.21
2022-08-21T21:00:01.768Z,64.08
2022-08-21T21:02:40.532Z,64.08
2022-08-21T21:05:13.245Z,64.77
2022-08-21T21:08:05.765Z,65.75
2022-08-21T21:10:57.529Z,64.68
2022-08-21T21:13:30.999Z,65.01
2022-08-21T21:16:38.738Z,65.56
2022-08-21T21:19:29.816Z,65.09
2022-08-21T21:22:11.337Z,65.69
2022-08-21T21:24:51.617Z,66.91
2022-08-21T21:27:58.810Z,64.90
2022-08-21T21:30:35.429Z,65.48
2022-08-21T21:33:03.805Z,65.80
2022-08-21T21:35:54.865Z,65.51
2022-08-21T21:38:51.942Z,65.72
2022-08-21T21:41:34.471Z,66.99
2022-08-21T21:44:46.069Z,66.19
2022-08-21T21:47:37.034Z,66.24
2022-08-21T21:50:42.835Z,65.49
2022-08-21T21:53:39.855Z,66.13
2022-08-21T21:56:22.872Z,66.12
2022-08-21T21:59:24.716Z,66.54
2022-08-21T22:02:19.760Z,66.54
2022-08-21T22:05:04.403Z,66.24
2022-08-21T22:07:51.459Z,66.26
2022-08-21T22:10:31.942Z,66.18
2022-08-21T22:13:09.575Z,66.30
2022-08-21T22:15:38.663Z,66.74
2022-08-21T22:18:25.380Z,66.83
2022-08-21T22:21:13.792Z,66.31
2022-08-21T22:23:45.257Z,66.20
2022-08-21T22:26:19.237Z,66.46
2022-08-21T22:28:50.290Z,66.38
2022-08-21T22:31:24.720Z,67.25
2022-08-21T22:34:18.353Z,66.76
2022-08-21T22:36:59.679Z,66.75
2022-08-21T22:39:46.336Z,66.39
2022-08-21T22:42:21.916Z,66.78
2022-08-21T22:44:57.027Z,66.93
2022-08-21T22:47:37.100Z,66.50
2022-08-21T22:50:17.862Z,67.61
2022-08-21T22:52:49.005Z,67.35
2022-08-21T22:55:24.693Z,66.99
2022-08-21T22:58:46.228Z,67.10
2022-08-21T23:01:22.684Z,67.14
2022-08-21T23:03:57.384Z,67.69
2022-08-21T23:06:35.013Z,67.57
2022-08-21T23:09:03.179Z,68.25
2022-08-21T23:11:44.533Z,67.52
2022-08-21T23:14:18.215Z,67.49
2022-08-21T23:17:09.126Z,67.52
2022-08-21T23:19:39.736Z,67.22
2022-08-21T23:22:51.495Z,67.34
2022-08-21T23:25:30.881Z,67.50
2022-08-21T23:28:07.437Z,67.59
2022-08-21T23:31:25.109Z,67.32
2022-08-21T23:34:11.054Z,67.67
2022-08-21T23:37:23.241Z,67.57
2022-08-21T23:40:21.487Z,67.75
2022-08-21T23:43:10.298Z,68.26
2022-08-21T23:45:56.362Z,68.57
2022-08-21T23:48:33.084Z,68.09
2022-08-21T23:51:24.386Z,67.83
2022-08-21T23:54:13.243Z,67.34
2022-08-21T23:57:08.156Z,67.97
2022-08-21T23:59:54.072Z,67.65
